Terminal Aerodrome Forecast
Issued by NWS

Home | Current Version | Previous Version | Graphics & Text | Print | Product List | Glossary On
Versions: 1 2 3 4 5 6 7 8 9 10 11 12 13 14 15
000
FTUS43 KLSX 210500
TAFSUS
TAF
KSUS 210520Z 2106/2206 25006KT P6SM SCT200
     FM210700 30008KT P6SM SCT200
     FM211500 32014G20KT P6SM FEW040
     FM212300 35007KT P6SM SCT250=

USA.gov is the U.S. government's official web portal to all federal, state and local government web resources and services.